Time;durP1;ratioP1;P1;durP2;ratioP2;P2;SDS_P1;SDS_P2;PMS_P1;PMS_P2;Temp;Humidity;BMP_temperature;BMP_pressure;BME280_temperature;BME280_humidity;BME280_pressure;Samples;Min_cycle;Max_cycle;Signal;HPM_P1;HPM_P2
2021/09/11 00:00:31;;;;;;;9.68;8.68;;;19.60;13.60;;;;;;5076610;28;20113;-64
2021/09/11 00:02:59;;;;;;;11.48;10.18;;;19.50;14.30;;;;;;5045565;28;20071;-65
2021/09/11 00:05:27;;;;;;;12.05;9.95;;;19.50;14.30;;;;;;5068731;28;20491;-65
2021/09/11 00:07:55;;;;;;;11.27;10.07;;;19.50;16.00;;;;;;5061830;28;20047;-64
2021/09/11 00:10:25;;;;;;;12.25;10.77;;;19.50;15.70;;;;;;5038976;28;20044;-64
2021/09/11 00:12:53;;;;;;;13.85;10.23;;;19.40;16.00;;;;;;5070401;28;20044;-64
2021/09/11 00:15:22;;;;;;;9.65;8.75;;;19.40;16.00;;;;;;5071907;28;20050;-65
2021/09/11 00:17:51;;;;;;;11.20;9.95;;;19.40;12.50;;;;;;5064058;28;20074;-65
2021/09/11 00:20:19;;;;;;;10.00;8.55;;;19.40;12.70;;;;;;5071657;28;20048;-65
2021/09/11 00:22:47;;;;;;;11.10;8.93;;;19.40;12.00;;;;;;5073325;28;20055;-63
2021/09/11 00:25:16;;;;;;;9.88;8.68;;;19.40;11.20;;;;;;5071704;28;20061;-64
2021/09/11 00:27:45;;;;;;;10.05;8.30;;;19.40;11.10;;;;;;5064049;28;20036;-66
2021/09/11 00:30:14;;;;;;;9.93;7.82;;;19.40;10.50;;;;;;5059004;28;20081;-64
2021/09/11 00:32:43;;;;;;;10.90;7.80;;;19.40;10.00;;;;;;5076647;28;20081;-64
2021/09/11 00:35:13;;;;;;;9.02;8.13;;;19.40;9.50;;;;;;5071434;28;20051;-66
2021/09/11 00:37:41;;;;;;;11.38;8.65;;;19.40;9.00;;;;;;5047968;28;20044;-64
2021/09/11 00:40:10;;;;;;;8.98;8.07;;;19.40;8.90;;;;;;5073591;28;20060;-65
2021/09/11 00:42:43;;;;;;;8.77;7.93;;;19.40;9.00;;;;;;5040684;28;20459;-66
2021/09/11 00:45:13;;;;;;;11.30;7.70;;;19.40;8.90;;;;;;5070859;28;20518;-66
2021/09/11 00:47:41;;;;;;;9.13;7.55;;;19.40;7.80;;;;;;5065107;28;20462;-66
2021/09/11 00:50:10;;;;;;;8.70;7.57;;;19.40;7.70;;;;;;5074086;28;20051;-66
2021/09/11 00:52:39;;;;;;;9.13;8.23;;;19.30;8.30;;;;;;5071777;28;20419;-66
2021/09/11 00:55:08;;;;;;;8.90;7.90;;;19.30;8.20;;;;;;5071252;28;20674;-66
2021/09/11 00:57:38;;;;;;;9.75;7.95;;;19.20;8.60;;;;;;5067443;28;20411;-66
2021/09/11 01:00:09;;;;;;;8.75;7.80;;;19.20;9.30;;;;;;5057614;28;20416;-66
2021/09/11 01:02:39;;;;;;;8.88;7.97;;;19.20;9.30;;;;;;5052509;28;20111;-65
2021/09/11 01:05:09;;;;;;;10.70;7.80;;;19.20;8.50;;;;;;5068750;28;20055;-67
2021/09/11 01:07:41;;;;;;;8.70;7.72;;;19.20;9.00;;;;;;5065105;28;20135;-66
2021/09/11 01:10:10;;;;;;;9.23;7.85;;;19.20;9.70;;;;;;5074571;28;20048;-67
2021/09/11 01:12:39;;;;;;;10.50;8.88;;;19.10;9.70;;;;;;5071296;28;20609;-66
2021/09/11 01:15:10;;;;;;;9.70;7.68;;;19.10;10.20;;;;;;5065540;28;20061;-65
2021/09/11 01:17:41;;;;;;;9.45;8.02;;;19.00;10.20;;;;;;5068018;28;20052;-66
2021/09/11 01:20:11;;;;;;;10.25;8.50;;;18.90;11.30;;;;;;5075448;28;20133;-66
2021/09/11 01:22:39;;;;;;;10.50;9.05;;;18.90;11.30;;;;;;5070507;28;20457;-67
2021/09/11 01:25:11;;;;;;;11.75;8.60;;;19.00;11.50;;;;;;5051903;28;20079;-67
2021/09/11 01:27:42;;;;;;;10.25;8.40;;;19.00;11.70;;;;;;5045323;28;20124;-67
2021/09/11 01:30:14;;;;;;;10.32;8.65;;;19.00;11.70;;;;;;5076443;28;20570;-66
2021/09/11 01:32:46;;;;;;;10.68;8.52;;;19.00;13.30;;;;;;5038069;28;20502;-67
2021/09/11 01:35:17;;;;;;;9.70;8.55;;;18.90;13.90;;;;;;5069772;28;20071;-66
2021/09/11 01:37:46;;;;;;;10.40;9.30;;;18.90;13.90;;;;;;5064050;28;20397;-66
2021/09/11 01:40:17;;;;;;;12.20;8.70;;;18.90;13.90;;;;;;5059271;28;20045;-65
2021/09/11 01:42:46;;;;;;;9.75;8.70;;;18.90;13.90;;;;;;5070374;28;20507;-66
2021/09/11 01:45:16;;;;;;;10.80;9.70;;;18.90;13.90;;;;;;5066904;28;20110;-66
2021/09/11 01:47:48;;;;;;;11.27;10.07;;;18.90;14.40;;;;;;5026197;28;20048;-66
2021/09/11 01:50:18;;;;;;;11.13;9.02;;;18.90;15.00;;;;;;5073160;28;20041;-66
2021/09/11 01:52:47;;;;;;;11.07;9.93;;;18.80;15.50;;;;;;5053235;28;20079;-67
2021/09/11 01:55:17;;;;;;;12.40;10.00;;;18.90;15.80;;;;;;5071372;28;20572;-66
2021/09/11 01:57:47;;;;;;;10.70;9.60;;;18.90;16.40;;;;;;5063372;28;20043;-66
2021/09/11 02:00:16;;;;;;;13.18;11.00;;;18.90;16.80;;;;;;5076538;28;20113;-65
2021/09/11 02:02:45;;;;;;;10.32;9.20;;;18.80;17.80;;;;;;5073115;28;20071;-66
2021/09/11 02:05:14;;;;;;;15.02;10.55;;;18.80;18.60;;;;;;5050481;28;20044;-66
2021/09/11 02:07:44;;;;;;;12.90;11.50;;;18.80;19.30;;;;;;5064035;28;20044;-66
2021/09/11 02:10:13;;;;;;;12.80;11.15;;;18.70;20.20;;;;;;5074755;28;20044;-66
2021/09/11 02:12:43;;;;;;;15.45;10.98;;;18.70;20.60;;;;;;5076659;28;20458;-65
2021/09/11 02:15:13;;;;;;;12.55;11.00;;;18.70;20.40;;;;;;5071679;28;20067;-66
2021/09/11 02:17:42;;;;;;;14.68;10.88;;;18.70;20.60;;;;;;5042700;28;20056;-65
2021/09/11 02:20:12;;;;;;;13.63;11.35;;;18.70;21.00;;;;;;5073237;28;20080;-66
2021/09/11 02:22:40;;;;;;;12.90;10.73;;;18.60;21.70;;;;;;5072516;28;20052;-66
2021/09/11 02:25:09;;;;;;;11.70;10.45;;;18.60;20.40;;;;;;5067972;28;20081;-65
2021/09/11 02:27:38;;;;;;;13.95;11.25;;;18.60;20.90;;;;;;5050513;28;20056;-65
2021/09/11 02:30:09;;;;;;;13.38;11.40;;;18.60;21.50;;;;;;5068536;28;20794;-65
2021/09/11 02:32:37;;;;;;;11.93;10.35;;;18.60;20.90;;;;;;5072700;28;20126;-67
2021/09/11 02:35:07;;;;;;;11.40;10.18;;;18.60;20.90;;;;;;5072420;28;20101;-67
2021/09/11 02:37:35;;;;;;;10.85;9.75;;;18.60;20.10;;;;;;5068968;28;20055;-67
2021/09/11 02:40:04;;;;;;;10.85;9.57;;;18.60;20.90;;;;;;5072036;28;20044;-65
2021/09/11 02:42:32;;;;;;;11.95;10.60;;;18.50;20.10;;;;;;5082114;28;20143;-65
2021/09/11 02:45:00;;;;;;;12.40;9.73;;;18.50;20.50;;;;;;5056894;28;20044;-65
2021/09/11 02:47:29;;;;;;;10.73;9.15;;;18.40;20.30;;;;;;5072568;28;20123;-66
2021/09/11 02:49:57;;;;;;;10.95;9.85;;;18.50;20.50;;;;;;5074495;28;20675;-65
2021/09/11 02:52:25;;;;;;;10.88;9.77;;;18.40;20.70;;;;;;5071666;28;20052;-65
2021/09/11 02:54:53;;;;;;;12.20;10.32;;;18.50;20.80;;;;;;5072621;28;20523;-65
2021/09/11 02:57:21;;;;;;;10.95;9.80;;;18.60;21.00;;;;;;5062399;28;20056;-65
2021/09/11 02:59:49;;;;;;;12.30;10.90;;;18.60;20.90;;;;;;5037398;28;20118;-65
2021/09/11 03:02:17;;;;;;;10.95;9.82;;;18.60;21.30;;;;;;5078624;28;20118;-65
2021/09/11 03:04:47;;;;;;;14.45;10.60;;;18.50;21.40;;;;;;5069298;28;20146;-65
2021/09/11 03:07:15;;;;;;;10.95;9.80;;;18.50;20.90;;;;;;5073599;28;20049;-65
2021/09/11 03:09:43;;;;;;;14.82;10.82;;;18.50;20.90;;;;;;5069949;28;20101;-66
2021/09/11 03:12:11;;;;;;;12.30;10.27;;;18.50;21.40;;;;;;5079321;28;20105;-66
2021/09/11 03:14:39;;;;;;;11.50;10.30;;;18.50;21.40;;;;;;5071377;28;20499;-66
2021/09/11 03:17:07;;;;;;;12.40;10.07;;;18.50;21.90;;;;;;5044241;28;20058;-66
2021/09/11 03:19:36;;;;;;;12.82;10.35;;;18.50;21.10;;;;;;5069924;28;20093;-65
2021/09/11 03:22:06;;;;;;;11.02;9.85;;;18.40;21.70;;;;;;5063885;28;20121;-66
2021/09/11 03:24:34;;;;;;;13.68;10.32;;;18.40;21.80;;;;;;5073374;28;20052;-66
2021/09/11 03:27:02;;;;;;;11.38;9.90;;;18.40;21.80;;;;;;5070129;28;20101;-67
2021/09/11 03:29:30;;;;;;;10.70;9.57;;;18.40;21.50;;;;;;5070800;28;20081;-67
2021/09/11 03:31:58;;;;;;;12.02;9.85;;;18.50;21.80;;;;;;5078682;28;20047;-66
2021/09/11 03:34:27;;;;;;;11.05;9.73;;;18.40;21.00;;;;;;5056919;28;20040;-67
2021/09/11 03:36:56;;;;;;;10.90;9.50;;;18.40;20.80;;;;;;5069958;28;20044;-65
2021/09/11 03:39:25;;;;;;;10.63;9.35;;;18.30;21.60;;;;;;5068455;28;20055;-65
2021/09/11 03:41:53;;;;;;;11.52;9.65;;;18.40;21.60;;;;;;5076845;28;20701;-66
2021/09/11 03:44:21;;;;;;;10.57;9.52;;;18.40;21.80;;;;;;5073226;28;20091;-66
2021/09/11 03:46:50;;;;;;;12.48;9.65;;;18.40;22.00;;;;;;5074636;28;20062;-65
2021/09/11 03:49:18;;;;;;;12.90;9.65;;;18.40;21.60;;;;;;5047925;28;20038;-65
2021/09/11 03:51:46;;;;;;;12.93;9.15;;;18.30;21.60;;;;;;5078069;28;20086;-65
2021/09/11 03:54:14;;;;;;;9.90;8.90;;;18.40;21.80;;;;;;5077157;28;20048;-67
2021/09/11 03:56:43;;;;;;;13.63;8.75;;;18.40;21.70;;;;;;5067239;28;20044;-67
2021/09/11 03:59:11;;;;;;;10.05;9.00;;;18.30;21.40;;;;;;5068429;28;20082;-66
2021/09/11 04:01:40;;;;;;;10.57;8.77;;;18.40;21.30;;;;;;5077913;28;20118;-66
2021/09/11 04:04:14;;;;;;;;;;;18.40;21.60;;;;;;5074131;28;20044;-66
2021/09/11 04:06:42;;;;;;;9.13;8.23;;;18.30;21.20;;;;;;5068395;28;20048;-67
2021/09/11 04:09:10;;;;;;;11.10;8.55;;;18.30;21.40;;;;;;5062569;28;20054;-67
2021/09/11 04:11:38;;;;;;;9.43;8.18;;;18.30;22.20;;;;;;5074892;28;20476;-65
2021/09/11 04:14:07;;;;;;;9.60;8.57;;;18.20;22.10;;;;;;5074530;28;20503;-65
2021/09/11 04:16:35;;;;;;;10.05;8.88;;;18.30;22.10;;;;;;5070390;28;20043;-65
2021/09/11 04:19:03;;;;;;;9.35;8.25;;;18.30;22.90;;;;;;5064691;28;20032;-65
2021/09/11 04:21:31;;;;;;;10.90;9.02;;;18.30;22.60;;;;;;5077681;28;20052;-65
2021/09/11 04:24:03;;;;;;;9.85;8.68;;;18.30;22.50;;;;;;5075767;28;20453;-66
2021/09/11 04:26:31;;;;;;;8.70;7.80;;;18.30;22.70;;;;;;5070500;28;20082;-66
2021/09/11 04:29:00;;;;;;;9.70;8.40;;;18.20;23.00;;;;;;5065019;28;20056;-65
2021/09/11 04:31:29;;;;;;;11.05;8.00;;;18.10;24.40;;;;;;5060452;28;20656;-65
2021/09/11 04:33:58;;;;;;;10.65;9.00;;;18.00;26.10;;;;;;5077681;28;20052;-66
2021/09/11 04:36:26;;;;;;;10.27;8.48;;;18.00;27.50;;;;;;5044012;28;20078;-65
2021/09/11 04:38:54;;;;;;;9.77;8.45;;;17.90;27.40;;;;;;5063323;28;20141;-66
2021/09/11 04:41:25;;;;;;;9.23;8.25;;;18.00;28.10;;;;;;5040828;28;20040;-66
2021/09/11 04:43:53;;;;;;;10.50;9.00;;;17.90;30.20;;;;;;5075804;28;20499;-66
2021/09/11 04:46:21;;;;;;;8.88;7.97;;;17.90;31.50;;;;;;5070213;28;20097;-65
2021/09/11 04:48:50;;;;;;;10.77;9.45;;;17.90;33.10;;;;;;5064787;28;20101;-66
2021/09/11 04:51:19;;;;;;;12.70;9.65;;;17.70;35.20;;;;;;5068498;28;20137;-66
2021/09/11 04:53:48;;;;;;;11.32;9.55;;;17.60;37.40;;;;;;5072791;28;20068;-66
2021/09/11 04:56:16;;;;;;;11.60;10.25;;;17.50;39.40;;;;;;5051954;28;20056;-65
2021/09/11 04:58:45;;;;;;;12.27;10.70;;;17.40;42.70;;;;;;5043673;28;20052;-65
2021/09/11 05:01:13;;;;;;;11.55;10.30;;;17.40;46.80;;;;;;5076975;28;20522;-66
2021/09/11 05:03:45;;;;;;;12.77;11.48;;;17.30;47.70;;;;;;5041132;28;20163;-66
2021/09/11 05:06:14;;;;;;;13.73;12.30;;;17.20;48.20;;;;;;5071180;28;20089;-67
2021/09/11 05:08:45;;;;;;;14.15;11.90;;;17.40;51.20;;;;;;5041793;28;20468;-66
2021/09/11 05:11:13;;;;;;;13.10;11.43;;;17.50;51.10;;;;;;5075143;28;20045;-65
2021/09/11 05:13:41;;;;;;;13.15;11.75;;;17.50;51.80;;;;;;5075875;28;20044;-66
2021/09/11 05:16:09;;;;;;;15.43;11.75;;;17.60;52.10;;;;;;5070126;28;20401;-64
2021/09/11 05:18:37;;;;;;;12.45;10.70;;;17.60;52.10;;;;;;5059524;28;20059;-66
2021/09/11 05:21:06;;;;;;;11.18;9.52;;;17.50;51.40;;;;;;5076126;28;20422;-66
2021/09/11 05:23:35;;;;;;;11.73;9.40;;;17.50;53.30;;;;;;5076336;28;20066;-66
2021/09/11 05:26:05;;;;;;;9.90;8.73;;;17.40;52.10;;;;;;5067686;28;20101;-66
2021/09/11 05:28:33;;;;;;;10.27;8.52;;;17.40;52.20;;;;;;5060557;28;20642;-66
2021/09/11 05:31:02;;;;;;;11.10;8.70;;;17.50;53.00;;;;;;5076365;28;20044;-67
2021/09/11 05:33:30;;;;;;;11.75;8.73;;;17.50;52.00;;;;;;5073757;28;20085;-66
2021/09/11 05:35:58;;;;;;;10.18;8.60;;;17.50;52.70;;;;;;5069656;28;21082;-65
2021/09/11 05:38:26;;;;;;;12.35;9.75;;;17.40;51.30;;;;;;5058280;28;20116;-66
2021/09/11 05:40:55;;;;;;;12.23;8.95;;;17.50;51.80;;;;;;5074797;28;20044;-66
2021/09/11 05:43:24;;;;;;;12.18;9.13;;;17.50;51.40;;;;;;5069233;28;20044;-66
2021/09/11 05:45:52;;;;;;;10.05;8.95;;;17.60;50.10;;;;;;5071010;28;20511;-65
2021/09/11 05:48:20;;;;;;;11.10;8.70;;;17.70;50.30;;;;;;5055384;28;20134;-66
2021/09/11 05:50:48;;;;;;;13.10;8.32;;;17.80;49.50;;;;;;5072190;28;20056;-65
2021/09/11 05:53:17;;;;;;;9.10;7.70;;;17.70;49.70;;;;;;5078942;28;20461;-65
2021/09/11 05:55:52;;;;;;;9.57;8.13;;;17.80;50.70;;;;;;5072128;28;20040;-66
2021/09/11 05:58:23;;;;;;;10.98;9.05;;;17.80;51.40;;;;;;5062114;28;20048;-66
2021/09/11 06:00:51;;;;;;;9.85;8.77;;;17.80;50.80;;;;;;5071739;28;20472;-66
2021/09/11 06:03:20;;;;;;;10.65;8.90;;;17.80;50.80;;;;;;5073502;28;20052;-66
2021/09/11 06:05:48;;;;;;;11.90;9.20;;;17.80;50.90;;;;;;5069118;28;20048;-66
2021/09/11 06:08:16;;;;;;;11.32;9.40;;;17.80;50.40;;;;;;5062232;28;20109;-66
2021/09/11 06:10:44;;;;;;;10.93;9.10;;;17.70;50.50;;;;;;5077194;28;20508;-66
2021/09/11 06:13:25;;;;;;;10.43;8.90;;;17.70;52.00;;;;;;5074111;28;20052;-66
2021/09/11 06:15:53;;;;;;;12.25;10.18;;;17.70;52.20;;;;;;5069172;28;20488;-66
2021/09/11 06:18:20;;;;;;;11.07;9.65;;;17.90;52.30;;;;;;5056568;28;20522;-66
2021/09/11 06:20:48;;;;;;;13.25;9.95;;;17.80;50.40;;;;;;5067010;28;20060;-66
2021/09/11 06:23:22;;;;;;;11.63;10.43;;;18.00;50.60;;;;;;5074342;28;20115;-66
2021/09/11 06:25:50;;;;;;;11.38;10.18;;;18.00;49.30;;;;;;5070140;28;20559;-66
2021/09/11 06:28:21;;;;;;;13.40;12.00;;;17.90;51.30;;;;;;5043565;28;20105;-67
2021/09/11 06:30:50;;;;;;;13.13;11.65;;;17.90;50.50;;;;;;5075376;28;20180;-66
2021/09/11 06:33:19;;;;;;;14.00;11.43;;;18.00;50.20;;;;;;5073868;28;20105;-66
2021/09/11 06:35:47;;;;;;;12.23;10.80;;;18.00;50.00;;;;;;5052290;28;20074;-66
2021/09/11 06:38:16;;;;;;;11.77;10.50;;;17.90;49.90;;;;;;5063929;28;20059;-67
2021/09/11 06:40:44;;;;;;;13.93;10.93;;;18.00;49.30;;;;;;5074936;28;20044;-66
2021/09/11 06:43:12;;;;;;;13.23;11.35;;;18.00;48.40;;;;;;5052977;28;20445;-66
2021/09/11 06:45:47;;;;;;;12.70;10.98;;;18.00;48.70;;;;;;5071852;28;20150;-65
2021/09/11 06:48:16;;;;;;;14.95;11.43;;;18.00;49.00;;;;;;5061544;28;20048;-66
2021/09/11 06:50:44;;;;;;;12.73;10.93;;;18.10;49.80;;;;;;5066351;28;20048;-66
2021/09/11 06:53:12;;;;;;;12.93;11.52;;;18.20;48.60;;;;;;5041994;28;20048;-66
2021/09/11 06:55:40;;;;;;;13.77;11.40;;;18.20;48.50;;;;;;5070655;28;20056;-66
2021/09/11 06:58:08;;;;;;;12.38;10.65;;;18.40;48.70;;;;;;5062646;28;20048;-66
2021/09/11 07:00:36;;;;;;;13.52;10.73;;;18.40;47.90;;;;;;5075636;28;20048;-66
2021/09/11 07:03:05;;;;;;;13.25;10.98;;;18.40;48.10;;;;;;5077812;28;20755;-67
2021/09/11 07:05:34;;;;;;;11.63;10.27;;;18.50;47.20;;;;;;5067358;28;20060;-66
2021/09/11 07:08:02;;;;;;;13.05;10.98;;;18.60;46.60;;;;;;5063406;28;20149;-66
2021/09/11 07:10:30;;;;;;;13.15;11.02;;;18.60;44.80;;;;;;5068563;28;20070;-66
2021/09/11 07:12:58;;;;;;;13.38;10.65;;;18.70;44.70;;;;;;5078334;28;20105;-66
2021/09/11 07:15:26;;;;;;;11.18;9.98;;;18.90;44.10;;;;;;5067152;28;20091;-66
2021/09/11 07:17:55;;;;;;;10.60;9.30;;;18.80;42.80;;;;;;5063362;28;20060;-66
2021/09/11 07:20:24;;;;;;;12.43;9.57;;;18.90;42.90;;;;;;5071676;28;20572;-66
2021/09/11 07:22:54;;;;;;;10.60;9.50;;;19.00;42.20;;;;;;5078088;28;20052;-66
2021/09/11 07:25:22;;;;;;;18.48;15.05;;;19.00;41.70;;;;;;5066460;28;20055;-66
2021/09/11 07:27:50;;;;;;;13.68;8.13;;;19.10;41.40;;;;;;5066828;28;20048;-66
2021/09/11 07:30:18;;;;;;;8.98;7.72;;;19.10;33.80;;;;;;5054094;28;20164;-66
2021/09/11 07:32:46;;;;;;;9.15;7.68;;;19.20;36.60;;;;;;5078058;28;20079;-65
2021/09/11 07:35:14;;;;;;;11.73;8.10;;;19.10;37.40;;;;;;5072083;28;20052;-65
2021/09/11 07:37:43;;;;;;;9.75;7.13;;;19.30;35.30;;;;;;5064358;28;20095;-66
2021/09/11 07:40:13;;;;;;;8.02;7.22;;;19.30;34.80;;;;;;5078950;28;20055;-66
2021/09/11 07:42:41;;;;;;;7.63;6.93;;;19.30;35.50;;;;;;5081292;28;20554;-66
2021/09/11 07:45:13;;;;;;;9.82;6.38;;;19.50;34.90;;;;;;5066416;28;20234;-66
2021/09/11 07:47:41;;;;;;;9.25;6.97;;;19.70;34.80;;;;;;5063654;28;20094;-66
2021/09/11 07:50:11;;;;;;;9.82;6.00;;;19.60;31.30;;;;;;5076304;28;20071;-66
2021/09/11 07:52:39;;;;;;;8.65;6.80;;;19.70;30.10;;;;;;5080421;28;20176;-66
2021/09/11 07:55:09;;;;;;;7.00;6.22;;;19.80;31.60;;;;;;5068152;28;20086;-66
2021/09/11 07:57:38;;;;;;;8.82;6.10;;;19.80;28.40;;;;;;5060799;28;20055;-66
2021/09/11 08:00:07;;;;;;;7.45;6.20;;;19.90;27.80;;;;;;5070204;28;20072;-66
2021/09/11 08:02:35;;;;;;;6.82;5.70;;;19.90;25.40;;;;;;5082331;28;20068;-66
2021/09/11 08:05:04;;;;;;;6.75;5.15;;;20.20;26.20;;;;;;5071533;28;20131;-67
2021/09/11 08:07:32;;;;;;;6.32;5.43;;;20.10;26.30;;;;;;5070125;28;20040;-66
2021/09/11 08:10:00;;;;;;;7.28;5.43;;;20.10;22.00;;;;;;5068844;28;20102;-66
2021/09/11 08:12:28;;;;;;;7.20;5.40;;;20.10;20.10;;;;;;5078302;28;20516;-67
2021/09/11 08:14:58;;;;;;;8.85;5.53;;;20.20;22.00;;;;;;5069113;28;20063;-67
2021/09/11 08:17:26;;;;;;;8.88;5.40;;;20.60;19.70;;;;;;5071112;28;21084;-66
2021/09/11 08:19:54;;;;;;;7.70;5.68;;;20.50;18.30;;;;;;5071825;28;20251;-67
2021/09/11 08:22:22;;;;;;;8.30;5.72;;;21.00;17.20;;;;;;5073422;28;20043;-66
2021/09/11 08:24:51;;;;;;;6.35;5.40;;;21.10;15.40;;;;;;5067261;28;21288;-66
2021/09/11 08:27:19;;;;;;;6.25;5.53;;;20.50;16.40;;;;;;5068924;28;20052;-66
2021/09/11 08:29:48;;;;;;;6.22;5.22;;;20.50;17.70;;;;;;5047971;28;20113;-66
2021/09/11 08:32:17;;;;;;;8.13;6.15;;;20.70;17.60;;;;;;5076098;28;20093;-66
2021/09/11 08:34:45;;;;;;;6.53;5.47;;;20.60;18.70;;;;;;5073283;28;20060;-66
2021/09/11 08:37:13;;;;;;;7.78;5.72;;;20.50;19.40;;;;;;5072646;28;20141;-66
2021/09/11 08:39:41;;;;;;;7.07;4.68;;;20.40;17.80;;;;;;5048339;28;20044;-66
2021/09/11 08:42:10;;;;;;;5.75;4.15;;;20.30;15.90;;;;;;5075624;28;20052;-66
2021/09/11 08:44:39;;;;;;;4.28;3.58;;;20.20;15.50;;;;;;5068257;28;20060;-66
2021/09/11 08:47:07;;;;;;;5.18;4.28;;;20.30;14.80;;;;;;5069414;28;20067;-66
2021/09/11 08:49:37;;;;;;;4.13;3.72;;;20.00;15.10;;;;;;5066474;28;20043;-67
2021/09/11 08:52:07;;;;;;;6.32;4.05;;;20.00;15.40;;;;;;5079394;28;20043;-67
2021/09/11 08:54:36;;;;;;;4.63;3.55;;;20.00;14.60;;;;;;5068566;28;20048;-67
2021/09/11 08:57:23;;;;;;;5.38;3.85;;;20.20;14.60;;;;;;5031160;28;20048;-66
2021/09/11 08:59:51;;;;;;;4.13;3.28;;;20.30;14.20;;;;;;5068378;28;20105;-66
2021/09/11 09:02:21;;;;;;;4.68;4.00;;;20.40;13.40;;;;;;5079368;28;20048;-66
2021/09/11 09:04:53;;;;;;;4.60;3.50;;;20.50;12.00;;;;;;5072207;28;20056;-66
2021/09/11 09:07:32;;;;;;;5.05;3.90;;;20.30;11.90;;;;;;5069088;28;20052;-66
2021/09/11 09:10:01;;;;;;;6.53;3.90;;;20.80;11.50;;;;;;5069263;28;20093;-66
2021/09/11 09:12:33;;;;;;;7.38;3.28;;;20.90;10.90;;;;;;5077556;28;20056;-67
2021/09/11 09:15:04;;;;;;;3.97;3.30;;;21.10;9.90;;;;;;5047513;28;20140;-67
2021/09/11 09:17:40;;;;;;;4.15;2.58;;;20.50;8.00;;;;;;5052463;28;20067;-65
2021/09/11 09:20:20;;;;;;;3.03;2.67;;;21.00;8.50;;;;;;5064296;28;20071;-66
2021/09/11 09:22:50;;;;;;;3.03;2.70;;;21.30;7.30;;;;;;5075851;28;20098;-66
2021/09/11 09:25:28;;;;;;;3.50;2.60;;;21.10;4.10;;;;;;5062208;28;20086;-66
2021/09/11 09:27:58;;;;;;;3.22;2.92;;;21.40;4.90;;;;;;5071234;28;20301;-66
2021/09/11 09:30:36;;;;;;;3.22;2.92;;;21.30;4.70;;;;;;5064679;28;20044;-67
2021/09/11 09:33:05;;;;;;;3.03;2.45;;;21.50;4.90;;;;;;5079545;28;20054;-67
2021/09/11 09:35:35;;;;;;;4.78;2.88;;;21.70;3.50;;;;;;5062489;28;20468;-67
2021/09/11 09:38:08;;;;;;;4.03;2.55;;;21.60;3.20;;;;;;5072496;28;20537;-67
2021/09/11 09:40:42;;;;;;;3.67;2.80;;;21.80;1.90;;;;;;5067109;28;20040;-67
2021/09/11 09:43:27;;;;;;;3.80;2.50;;;21.40;2.90;;;;;;5041690;28;20036;-66
2021/09/11 09:46:04;;;;;;;4.28;2.53;;;21.20;3.00;;;;;;5062969;28;20085;-66
2021/09/11 09:48:34;;;;;;;3.95;2.80;;;21.60;2.50;;;;;;5063524;28;20056;-67
2021/09/11 09:51:08;;;;;;;4.00;2.88;;;21.80;1.60;;;;;;5075179;28;20105;-65
2021/09/11 09:53:37;;;;;;;3.95;2.95;;;21.80;2.00;;;;;;5073022;28;20646;-66
2021/09/11 09:56:06;;;;;;;4.07;2.92;;;21.60;2.80;;;;;;5064998;28;20121;-66
2021/09/11 09:58:35;;;;;;;4.72;3.17;;;21.40;1.70;;;;;;5044229;28;20615;-66
2021/09/11 10:01:04;;;;;;;6.40;3.20;;;21.60;3.70;;;;;;5072479;28;20101;-66
2021/09/11 10:03:32;;;;;;;4.63;3.08;;;21.70;1.30;;;;;;5077718;28;21404;-65
2021/09/11 10:06:05;;;;;;;3.70;3.10;;;21.70;2.30;;;;;;5031221;28;20453;-66
2021/09/11 10:08:38;;;;;;;3.42;2.75;;;21.90;1.90;;;;;;5059885;28;20047;-66
2021/09/11 10:11:10;;;;;;;3.75;2.90;;;22.00;1.00;;;;;;5074490;28;20101;-67
2021/09/11 10:13:40;;;;;;;3.35;2.90;;;22.40;1.00;;;;;;5072631;28;20121;-66
2021/09/11 10:16:09;;;;;;;3.50;3.17;;;21.70;1.60;;;;;;5063577;28;20389;-66
2021/09/11 10:18:42;;;;;;;6.57;3.53;;;22.00;1.80;;;;;;5067300;28;20452;-66
2021/09/11 10:21:35;;;;;;;5.63;3.00;;;22.30;1.10;;;;;;5071325;28;20109;-66
2021/09/11 10:24:30;;;;;;;4.57;3.10;;;21.90;1.00;;;;;;5073807;28;20117;-66
2021/09/11 10:27:01;;;;;;;4.32;3.15;;;22.30;1.00;;;;;;5069934;28;20052;-67
2021/09/11 10:29:40;;;;;;;5.40;2.90;;;22.20;1.00;;;;;;5064202;28;20802;-67
2021/09/11 10:32:09;;;;;;;7.95;3.72;;;22.40;1.00;;;;;;5057547;28;20052;-67
2021/09/11 10:34:46;;;;;;;4.43;3.20;;;22.50;1.00;;;;;;5062419;28;20056;-67
2021/09/11 10:37:34;;;;;;;4.10;2.97;;;22.40;1.00;;;;;;5065527;28;20056;-66
2021/09/11 10:40:28;;;;;;;3.70;2.90;;;22.10;1.00;;;;;;5069349;28;20091;-65
2021/09/11 10:43:18;;;;;;;4.63;3.43;;;21.70;1.00;;;;;;5072741;28;20047;-65
2021/09/11 10:46:00;;;;;;;3.83;3.00;;;22.50;1.00;;;;;;5062442;28;20070;-66
2021/09/11 10:48:47;;;;;;;4.53;3.50;;;22.40;1.00;;;;;;5074150;28;20066;-65
2021/09/11 10:51:29;;;;;;;4.00;3.25;;;22.20;1.00;;;;;;5070129;28;20048;-66
2021/09/11 10:54:28;;;;;;;4.70;3.40;;;22.90;1.00;;;;;;5074048;28;20101;-66
2021/09/11 10:57:13;;;;;;;3.83;3.25;;;23.30;1.00;;;;;;5063245;28;20120;-66
2021/09/11 10:59:45;;;;;;;4.05;3.30;;;23.30;1.00;;;;;;5066268;28;20043;-65
2021/09/11 11:02:34;;;;;;;5.55;3.25;;;23.70;1.00;;;;;;5079777;28;20048;-67
2021/09/11 11:05:10;;;;;;;5.75;3.88;;;23.20;1.00;;;;;;5063059;28;20140;-66
2021/09/11 11:07:43;;;;;;;3.22;2.90;;;23.10;1.00;;;;;;5075261;28;20445;-66
2021/09/11 11:10:12;;;;;;;3.47;3.00;;;22.90;1.00;;;;;;5063539;28;20056;-66
2021/09/11 11:12:45;;;;;;;5.45;3.00;;;22.90;1.00;;;;;;5075325;28;20056;-66
2021/09/11 11:15:15;;;;;;;3.30;2.88;;;22.90;1.00;;;;;;5062303;28;20075;-66
2021/09/11 11:17:45;;;;;;;4.45;2.85;;;23.00;1.00;;;;;;5072344;28;20044;-67
2021/09/11 11:20:14;;;;;;;3.58;3.28;;;22.80;1.00;;;;;;5067893;28;20068;-67
2021/09/11 11:22:44;;;;;;;4.85;3.17;;;23.00;1.00;;;;;;5060535;28;20040;-65
2021/09/11 11:25:16;;;;;;;4.72;3.60;;;22.60;1.00;;;;;;5062447;28;20052;-66
2021/09/11 11:27:46;;;;;;;3.60;2.90;;;22.60;1.00;;;;;;5068816;28;20049;-66
2021/09/11 11:30:15;;;;;;;4.88;3.05;;;22.80;1.00;;;;;;5066455;28;20067;-66
2021/09/11 11:32:43;;;;;;;3.70;2.80;;;22.80;1.00;;;;;;5079067;28;20055;-66
2021/09/11 11:35:14;;;;;;;3.85;2.53;;;23.00;1.00;;;;;;5045909;28;22058;-66
2021/09/11 11:37:43;;;;;;;3.00;2.70;;;23.10;1.00;;;;;;5064840;28;20641;-66
2021/09/11 11:40:13;;;;;;;4.72;3.35;;;23.10;1.00;;;;;;5066750;28;20055;-66
2021/09/11 11:42:43;;;;;;;3.60;2.70;;;23.30;1.00;;;;;;5054963;28;20177;-67
2021/09/11 11:45:15;;;;;;;4.13;3.33;;;23.10;1.00;;;;;;5046381;28;20084;-66
2021/09/11 11:47:51;;;;;;;4.57;3.50;;;22.50;1.00;;;;;;5074116;28;20040;-66
2021/09/11 11:50:23;;;;;;;4.53;3.03;;;22.10;1.00;;;;;;5048435;28;20051;-65
2021/09/11 11:52:56;;;;;;;12.48;4.60;;;21.30;4.90;;;;;;5081008;28;20052;-67
2021/09/11 11:55:25;;;;;;;16.02;4.55;;;19.50;36.10;;;;;;5066736;28;20123;-68
2021/09/11 11:58:06;;;;;;;5.22;3.08;;;19.00;52.30;;;;;;5070717;28;20052;-69
2021/09/11 12:00:41;;;;;;;6.60;2.97;;;18.30;56.00;;;;;;5063917;28;20056;-69
2021/09/11 12:03:31;;;;;;;2.45;1.85;;;17.90;99.90;;;;;;5057725;28;20053;-70
2021/09/11 12:06:00;;;;;;;3.47;2.10;;;17.80;79.20;;;;;;5066211;28;20097;-70
2021/09/11 12:08:29;;;;;;;2.25;1.58;;;17.90;63.40;;;;;;5076878;28;20051;-70
2021/09/11 12:10:58;;;;;;;2.40;1.20;;;18.20;61.50;;;;;;5069081;28;20458;-70
2021/09/11 12:13:26;;;;;;;3.63;1.90;;;18.20;59.10;;;;;;5072963;28;20036;-70
2021/09/11 12:15:56;;;;;;;2.55;2.00;;;18.50;58.60;;;;;;5061663;28;20700;-70
2021/09/11 12:18:34;;;;;;;3.60;2.40;;;18.60;57.10;;;;;;5071000;28;20052;-71
2021/09/11 12:21:08;;;;;;;3.97;2.35;;;18.70;56.80;;;;;;5075601;28;20094;-69
2021/09/11 12:23:37;;;;;;;4.82;3.20;;;19.00;57.60;;;;;;5077006;28;20097;-70
2021/09/11 12:26:06;;;;;;;3.92;2.65;;;19.50;60.50;;;;;;5071619;28;20047;-70
2021/09/11 12:28:43;;;;;;;6.03;3.22;;;19.70;60.60;;;;;;5078610;28;20036;-70
2021/09/11 12:31:27;;;;;;;4.35;3.25;;;19.80;59.30;;;;;;5056824;28;20063;-70
2021/09/11 12:33:57;;;;;;;4.57;2.95;;;19.60;54.40;;;;;;5073137;28;20050;-71
2021/09/11 12:36:34;;;;;;;4.55;3.13;;;19.80;54.10;;;;;;5070904;28;20063;-71
2021/09/11 12:39:06;;;;;;;10.35;2.90;;;19.70;51.20;;;;;;5068649;28;20064;-70
2021/09/11 12:41:37;;;;;;;3.78;2.80;;;19.90;53.10;;;;;;5073550;28;20088;-70
2021/09/11 12:44:06;;;;;;;8.27;3.60;;;20.00;51.90;;;;;;5077074;28;20052;-70
2021/09/11 12:46:40;;;;;;;4.40;3.67;;;20.30;56.00;;;;;;5037659;28;20063;-70
2021/09/11 12:49:10;;;;;;;6.95;4.10;;;20.40;56.80;;;;;;5026419;28;20692;-71
2021/09/11 12:51:44;;;;;;;5.65;3.40;;;20.40;50.20;;;;;;5046724;28;20086;-71
2021/09/11 12:54:13;;;;;;;4.68;3.20;;;20.50;49.80;;;;;;5058198;28;20049;-73
2021/09/11 12:56:43;;;;;;;5.32;3.97;;;20.60;51.20;;;;;;5052313;28;21811;-72
2021/09/11 12:59:15;;;;;;;4.40;3.72;;;20.60;51.30;;;;;;5025638;28;20059;-70